TAF Text Data
IDs:
Format:
Raw Decoded Include METAR

Data at: 2230 UTC 21 Feb 2020

Region: TOP
KATL 212132Z 2122/2224 01006KT P6SM SKC
  FM220200 34004KT P6SM SKC
  FM220800 00000KT P6SM SKC
  FM221500 26004KT P6SM SKC


KBOS 212102Z 2121/2224 13008KT P6SM FEW045
  FM212300 22007KT P6SM SKC
  FM220300 23011G24KT P6SM SKC
  FM222000 27009KT P6SM SKC


KBWI 212058Z 2121/2224 31008KT P6SM SKC
  FM212200 VRB03KT P6SM SKC
  FM221500 25007KT P6SM SKC


KCLE 212041Z 2121/2224 24010G18KT P6SM SKC
  FM212300 23012KT P6SM SKC
  FM221500 22010G20KT P6SM SKC


KCLT 212157Z 2122/2224 03007KT P6SM SKC
  FM220200 VRB02KT P6SM SKC
  FM222000 22004KT P6SM SKC


KCVG 212049Z 2121/2224 25004KT P6SM SKC
  FM220000 22004KT P6SM SKC


KDCA 212058Z 2121/2224 33008KT P6SM SKC
  FM212200 28005KT P6SM SKC
  FM220400 22004KT P6SM SKC
  FM221500 22008KT P6SM SKC


KDEN 212105Z 2121/2224 14010KT P6SM FEW140 FEW220
  FM220000 17007KT P6SM FEW140 FEW220
  FM220300 21010KT P6SM FEW220
  FM221600 17008KT P6SM FEW140 SCT200


KDFW 212103Z 2121/2224 VRB02KT P6SM FEW250
  FM220200 14004KT P6SM SCT250
  FM221500 17010KT P6SM SCT180 BKN250


KDTW 212048Z 2121/2224 23015G21KT P6SM SKC
  FM220200 23010KT P6SM SKC
  FM221600 24009G17KT P6SM SKC


KEWR 212020Z 2120/2224 25009KT P6SM SKC
  FM212100 25007KT P6SM SKC
  FM212300 23006KT P6SM SKC
  FM221400 26012G19KT P6SM SKC


KFLL 212045Z 2121/2224 35015G25KT P6SM VCSH SCT010 BKN015 BKN030
  FM220900 01013G23KT P6SM BKN040
  FM221500 05015G25KT P6SM SCT025 SCT250


KIAD 212058Z 2121/2224 32009KT P6SM SKC
  FM212200 VRB03KT P6SM SKC
  FM221600 23008KT P6SM SKC


KIAH 212101Z 2121/2224 02009KT P6SM SCT250
  FM220100 VRB03KT P6SM SKC
  FM221400 09005KT P6SM FEW250
  FM221800 14004KT P6SM SCT250


KJFK 212134Z 2122/2224 24009KT P6SM SKC
  FM221400 26013G20KT P6SM SKC


KLAS 212106Z 2121/2224 06006KT P6SM FEW150 FEW250
  FM220300 21006KT P6SM BKN100
  FM221400 VRB05KT P6SM VCSH SCT060 BKN100
  FM221700 01006KT P6SM -RA BKN060 OVC080
  FM221900 34007KT P6SM -RA SCT040 OVC060
  TEMPO 2219/2223 SCT020 BKN040


KLAX 212054Z 2121/2224 26007KT P6SM SCT100 BKN180
  FM221000 10006KT P6SM VCSH BKN060 OVC100
  FM221300 12007KT P6SM VCTS BKN040CB OVC060
  PROB30 2214/2218 5SM SHRA BKN025
  FM222000 23010KT P6SM SCT020 BKN050


KLGA 212020Z 2120/2224 30005KT P6SM SKC
  FM212100 30006KT P6SM SKC
  FM212300 24008KT P6SM SKC
  FM221400 27012G19KT P6SM SKC


KMCO 212055Z 2121/2224 36020G28KT P6SM BKN018 OVC025
  FM220000 36015G23KT P6SM BKN025
  TEMPO 2203/2206 SCT025
  FM220600 36011G17KT P6SM SCT025
  FM221500 02012G19KT P6SM BKN035 BKN050


KMDW 212045Z 2121/2224 23014G24KT P6SM SKC
  FM220300 23013KT P6SM SKC WS020/25045KT
  FM220900 23010KT P6SM SKC
  FM221500 22014KT P6SM SKC
  FM222200 22007KT P6SM FEW200


KMEM 212101Z 2121/2224 36005KT P6SM SKC
  FM220100 VRB03KT P6SM SKC
  FM221600 19007KT P6SM FEW250


KMIA 212045Z 2121/2224 33012G22KT P6SM BKN010 BKN040
  FM220900 01010G20KT P6SM BKN040
  FM221600 05015G25KT P6SM SCT025 BKN250


KMSP 212054Z 2121/2224 22011G25KT P6SM SKC WS015/25050KT
  FM212200 23008KT P6SM SKC
  FM220200 22003KT P6SM FEW250
  FM221600 19004KT P6SM SCT200


KORD 212045Z 2121/2224 23015G25KT P6SM SKC
  FM220300 23014KT P6SM SKC WS020/25045KT
  FM220900 23010KT P6SM SKC
  FM221500 22013KT P6SM SKC
  FM222200 22008KT P6SM FEW200


KPDX 212006Z 2120/2218 VRB03KT P6SM SKC
  FM221300 00000KT P6SM SCT060 BKN100


KPHL 212033Z 2121/2224 29006KT P6SM SKC
  FM212300 24006KT P6SM SKC
  FM221400 25010G18KT P6SM SKC
  FM222300 23008KT P6SM SCT250


KPHX 212049Z 2121/2224 07015G22KT P6SM FEW150 BKN250
  FM212300 13009KT P6SM SCT120 OVC200
  FM220600 12007KT P6SM OVC100
  FM221000 12005KT P6SM -SHRA SCT040 OVC060
  FM221300 12006KT 3SM -RA BR SCT025 OVC050
  FM222300 23015G25KT P6SM -SHRA SCT040 BKN070


KPIT 212102Z 2121/2224 28006KT P6SM SKC
  FM220200 VRB05KT P6SM SKC


KSAN 212047Z 2121/2224 23008KT P6SM SCT011 BKN150
  FM220800 21010KT P6SM -SHRA BKN025 OVC050
  FM221200 21010KT P6SM -SHRA VCTS BKN025CB OVC050CB
  FM222200 29010KT P6SM -SHRA VCTS BKN025CB OVC050CB


KSEA 212101Z 2121/2224 22007KT P6SM BKN250
  FM220300 21004KT P6SM SCT050 BKN120 BKN200
  FM221000 18008KT P6SM FEW015 BKN050
  FM221500 18008KT P6SM BKN015 BKN050


KSFO 212106Z 2121/2224 VRB03KT P6SM FEW040 BKN200
  FM220000 29008KT P6SM BKN150 BKN200
  FM220600 VRB03KT P6SM OVC100
  FM221200 12004KT P6SM OVC080
  FM222000 29010KT P6SM SCT050 BKN100


KSLC 212102Z 2121/2224 33006KT P6SM SKC
  FM220500 15005KT P6SM SCT200
  FM221800 33006KT P6SM BKN100


KSTL 212057Z 2121/2224 19007KT P6SM SKC
  FM220000 VRB04KT P6SM SKC
  FM221600 20007KT P6SM SKC


KTPA 212046Z 2121/2224 02013G21KT P6SM BKN025
  FM220000 02010G16KT P6SM SCT050
  FM220300 02010KT P6SM SKC
  FM221400 03008KT P6SM SCT120